createdAt,value
2023-03-30T00:01:12.823Z,94547
2023-03-30T00:04:38.176Z,94538
2023-03-30T00:08:03.421Z,94524
2023-03-30T00:11:28.682Z,94513
2023-03-30T00:14:53.913Z,94512
2023-03-30T00:18:19.147Z,94515
2023-03-30T00:21:44.401Z,94519
2023-03-30T00:25:09.623Z,94504
2023-03-30T00:28:34.885Z,94494
2023-03-30T00:32:00.171Z,94489
2023-03-30T00:35:25.362Z,94478
2023-03-30T00:38:50.589Z,94470
2023-03-30T00:42:15.828Z,94454
2023-03-30T00:45:41.089Z,94453
2023-03-30T00:49:07.273Z,94440
2023-03-30T00:52:32.486Z,94434
2023-03-30T00:55:57.725Z,94435
2023-03-30T00:59:22.973Z,94432
2023-03-30T01:02:48.324Z,94427
2023-03-30T01:06:13.542Z,94427
2023-03-30T01:09:38.775Z,94431
2023-03-30T01:13:04.035Z,94426
2023-03-30T01:16:29.280Z,94426
2023-03-30T01:19:54.516Z,94422
2023-03-30T01:23:19.812Z,94425
2023-03-30T01:26:45.028Z,94422
2023-03-30T01:30:10.229Z,94423
2023-03-30T01:33:35.480Z,94411
2023-03-30T01:37:00.726Z,94410
2023-03-30T01:40:25.982Z,94407
2023-03-30T01:43:51.282Z,94403
2023-03-30T01:47:16.509Z,94388
2023-03-30T01:50:41.750Z,94389
2023-03-30T01:54:07.002Z,94373
2023-03-30T01:57:32.289Z,94375
2023-03-30T02:00:57.555Z,94373
2023-03-30T02:04:22.829Z,94365
2023-03-30T02:07:48.099Z,94372
2023-03-30T02:11:13.349Z,94354
2023-03-30T02:14:38.625Z,94359
2023-03-30T02:18:03.898Z,94347
2023-03-30T02:21:29.139Z,94352
2023-03-30T02:24:54.399Z,94353
2023-03-30T02:28:19.706Z,94358
2023-03-30T02:31:44.965Z,94344
2023-03-30T02:35:10.109Z,94347
2023-03-30T02:38:35.383Z,94351
2023-03-30T02:42:00.628Z,94378
2023-03-30T02:45:25.862Z,94384
2023-03-30T02:48:51.167Z,94383
2023-03-30T02:52:16.390Z,94389
2023-03-30T02:55:41.615Z,94381
2023-03-30T02:59:06.880Z,94392
2023-03-30T03:02:32.220Z,94386
2023-03-30T03:05:57.427Z,94382
2023-03-30T03:09:22.643Z,94394
2023-03-30T03:12:47.887Z,94391
2023-03-30T03:16:13.140Z,94400
2023-03-30T03:19:38.386Z,94388
2023-03-30T03:23:03.643Z,94389
2023-03-30T03:26:28.811Z,94396
2023-03-30T03:29:54.028Z,94399
2023-03-30T03:33:19.266Z,94396
2023-03-30T03:36:44.476Z,94397
2023-03-30T03:40:09.706Z,94395
2023-03-30T03:43:34.857Z,94379
2023-03-30T03:47:00.138Z,94381
2023-03-30T03:50:25.297Z,94360
2023-03-30T03:53:50.508Z,94366
2023-03-30T03:57:15.770Z,94366
2023-03-30T04:00:40.927Z,94367
2023-03-30T04:04:06.119Z,94367
2023-03-30T04:07:31.368Z,94365
2023-03-30T04:10:56.574Z,94354
2023-03-30T04:14:21.795Z,94364
2023-03-30T04:17:47.510Z,94365
2023-03-30T04:21:12.121Z,94364
2023-03-30T04:24:37.372Z,94361
2023-03-30T04:28:02.568Z,94350
2023-03-30T04:31:27.803Z,94372
2023-03-30T04:34:52.949Z,94369
2023-03-30T04:38:18.131Z,94372
2023-03-30T04:41:43.305Z,94389
2023-03-30T04:45:08.481Z,94393
2023-03-30T04:48:33.681Z,94401
2023-03-30T04:51:58.828Z,94411
2023-03-30T04:55:24.053Z,94416
2023-03-30T04:58:49.313Z,94421
2023-03-30T05:02:14.577Z,94428
2023-03-30T05:05:39.762Z,94415
2023-03-30T05:09:04.927Z,94397
2023-03-30T05:12:30.112Z,94394
2023-03-30T05:15:55.314Z,94407
2023-03-30T05:19:20.507Z,94405
2023-03-30T05:22:45.751Z,94390
2023-03-30T05:26:10.985Z,94401
2023-03-30T05:29:36.122Z,94410
2023-03-30T05:33:01.375Z,94408
2023-03-30T05:36:26.562Z,94422
2023-03-30T05:39:51.815Z,94408
2023-03-30T05:43:17.057Z,94399
2023-03-30T05:46:42.308Z,94393
2023-03-30T05:50:07.666Z,94387
2023-03-30T05:53:33.130Z,94372
2023-03-30T05:56:58.446Z,94357
2023-03-30T06:00:23.696Z,94342
2023-03-30T06:03:49.104Z,94339
2023-03-30T06:07:14.286Z,94325
2023-03-30T06:10:39.580Z,94325
2023-03-30T06:14:04.911Z,94306
2023-03-30T06:17:30.224Z,94293
2023-03-30T06:20:56.341Z,94294
2023-03-30T06:24:21.599Z,94287
2023-03-30T06:27:46.888Z,94292
2023-03-30T06:31:12.194Z,94290
2023-03-30T06:34:37.469Z,94286
2023-03-30T06:38:02.835Z,94282
2023-03-30T06:41:28.131Z,94276
2023-03-30T06:44:53.413Z,94270
2023-03-30T06:48:18.771Z,94257
2023-03-30T06:51:44.053Z,94246
2023-03-30T06:55:09.316Z,94234
2023-03-30T06:58:34.633Z,94230
2023-03-30T07:01:59.929Z,94235
2023-03-30T07:05:25.229Z,94233
2023-03-30T07:08:50.614Z,94225
2023-03-30T07:12:16.031Z,94230
2023-03-30T07:15:41.620Z,94237
2023-03-30T07:19:07.076Z,94252
2023-03-30T07:22:33.026Z,94270
2023-03-30T07:25:58.873Z,94286
2023-03-30T07:29:24.498Z,94294
2023-03-30T07:32:50.327Z,94302
2023-03-30T07:36:15.854Z,94307
2023-03-30T07:39:41.615Z,94311
2023-03-30T07:43:07.450Z,94314
2023-03-30T07:46:33.293Z,94315
2023-03-30T07:49:59.149Z,94319
2023-03-30T07:53:24.948Z,94338
2023-03-30T07:56:50.736Z,94356
2023-03-30T08:00:16.450Z,94362
2023-03-30T08:03:42.180Z,94373
2023-03-30T08:07:07.881Z,94368
2023-03-30T08:10:33.700Z,94379
2023-03-30T08:13:59.470Z,94384
2023-03-30T08:17:25.088Z,94384
2023-03-30T08:20:50.693Z,94381
2023-03-30T08:24:16.300Z,94389
2023-03-30T08:27:41.743Z,94400
2023-03-30T08:31:07.251Z,94382
2023-03-30T08:34:33.349Z,94375
2023-03-30T08:37:57.965Z,94373
2023-03-30T08:41:23.436Z,94366
2023-03-30T08:44:48.880Z,94375
2023-03-30T08:48:14.195Z,94370
2023-03-30T08:51:39.388Z,94368
2023-03-30T08:55:04.665Z,94356
2023-03-30T08:58:29.891Z,94348
2023-03-30T09:01:55.192Z,94345
2023-03-30T09:05:20.497Z,94355
2023-03-30T09:08:45.663Z,94355
2023-03-30T09:12:10.886Z,94351
2023-03-30T09:15:36.158Z,94343
2023-03-30T09:19:01.328Z,94317
2023-03-30T09:22:26.575Z,94287
2023-03-30T09:25:51.763Z,94278
2023-03-30T09:29:16.976Z,94261
2023-03-30T09:32:42.194Z,94219
2023-03-30T09:36:07.598Z,94216
2023-03-30T09:39:33.695Z,94272
2023-03-30T09:42:58.008Z,94289
2023-03-30T09:46:23.307Z,94295
2023-03-30T09:49:48.595Z,94314
2023-03-30T09:53:13.832Z,94331
2023-03-30T09:56:40.911Z,94333
2023-03-30T10:00:04.332Z,94335
2023-03-30T10:03:29.740Z,94328
2023-03-30T10:06:54.882Z,94317
2023-03-30T10:10:20.127Z,94297
2023-03-30T10:13:45.367Z,94288
2023-03-30T10:17:10.573Z,94279
2023-03-30T10:20:35.815Z,94270
2023-03-30T10:24:01.064Z,94274
2023-03-30T10:27:26.342Z,94276
2023-03-30T10:30:51.621Z,94268
2023-03-30T10:34:16.809Z,94280
2023-03-30T10:37:42.572Z,94279
2023-03-30T10:41:07.799Z,94277
2023-03-30T10:44:33.049Z,94261
2023-03-30T10:48:00.068Z,94264
2023-03-30T10:51:23.488Z,94260
2023-03-30T10:54:48.721Z,94242
2023-03-30T10:58:13.984Z,94239
2023-03-30T11:01:39.276Z,94231
2023-03-30T11:05:04.485Z,94232
2023-03-30T11:08:29.741Z,94228
2023-03-30T11:11:55.027Z,94230
2023-03-30T11:15:20.307Z,94238
2023-03-30T11:18:45.636Z,94229
2023-03-30T11:22:10.986Z,94221
2023-03-30T11:25:36.266Z,94217
2023-03-30T11:29:01.582Z,94223
2023-03-30T11:32:26.920Z,94227
2023-03-30T11:35:52.266Z,94211
2023-03-30T11:39:29.310Z,94195
2023-03-30T11:42:42.803Z,94198
2023-03-30T11:46:08.261Z,94188
2023-03-30T11:49:33.456Z,94188
2023-03-30T11:52:58.812Z,94192
2023-03-30T11:56:25.746Z,94188
2023-03-30T11:59:49.444Z,94182
2023-03-30T12:03:14.847Z,94176
2023-03-30T12:06:40.093Z,94164
2023-03-30T12:10:07.744Z,94172
2023-03-30T12:13:41.212Z,94186
2023-03-30T12:16:56.119Z,94183
2023-03-30T12:20:21.461Z,94178
2023-03-30T12:23:46.777Z,94165
2023-03-30T12:27:12.155Z,94174
2023-03-30T12:30:37.329Z,94178
2023-03-30T12:34:02.625Z,94165
2023-03-30T12:37:27.892Z,94176
2023-03-30T12:40:53.217Z,94163
2023-03-30T12:44:18.562Z,94173
2023-03-30T12:47:43.931Z,94168
2023-03-30T12:51:09.220Z,94162
2023-03-30T12:54:34.552Z,94162
2023-03-30T12:57:59.886Z,94167
2023-03-30T13:01:25.295Z,94175
2023-03-30T13:04:50.763Z,94161
2023-03-30T13:08:15.932Z,94166
2023-03-30T13:11:41.286Z,94164
2023-03-30T13:15:06.665Z,94173
2023-03-30T13:18:31.994Z,94159
2023-03-30T13:21:57.364Z,94170
2023-03-30T13:25:22.710Z,94154
2023-03-30T13:28:48.193Z,94163
2023-03-30T13:32:13.604Z,94161
2023-03-30T13:35:38.988Z,94158
2023-03-30T13:39:04.369Z,94159
2023-03-30T13:42:29.804Z,94147
2023-03-30T13:46:00.294Z,94151
2023-03-30T13:49:20.793Z,94157
2023-03-30T13:52:46.134Z,94158
2023-03-30T13:56:11.520Z,94167
2023-03-30T13:59:36.988Z,94175
2023-03-30T14:03:02.407Z,94172
2023-03-30T14:06:27.842Z,94176
2023-03-30T14:09:53.173Z,94182
2023-03-30T14:13:18.704Z,94178
2023-03-30T14:16:44.009Z,94173
2023-03-30T14:20:09.404Z,94169
2023-03-30T14:23:34.769Z,94165
2023-03-30T14:27:00.197Z,94172
2023-03-30T14:30:25.545Z,94153
2023-03-30T14:33:50.882Z,94155
2023-03-30T14:37:16.282Z,94163
2023-03-30T14:40:41.659Z,94175
2023-03-30T14:44:07.024Z,94190
2023-03-30T14:47:32.477Z,94207
2023-03-30T14:50:57.732Z,94248
2023-03-30T14:54:23.068Z,94260
2023-03-30T14:57:48.395Z,94268
2023-03-30T15:01:13.789Z,94287
2023-03-30T15:04:39.089Z,94285
2023-03-30T15:42:15.226Z,94220
2023-03-30T15:45:41.110Z,94223
2023-03-30T15:49:06.419Z,94227
2023-03-30T15:52:31.725Z,94230
2023-03-30T15:55:56.987Z,94229
2023-03-30T15:59:22.271Z,94226
2023-03-30T16:02:47.553Z,94230
2023-03-30T16:06:12.796Z,94237
2023-03-30T16:09:38.044Z,94246
2023-03-30T16:13:03.325Z,94233
2023-03-30T16:16:28.618Z,94237
2023-03-30T16:19:53.821Z,94239
2023-03-30T16:23:19.143Z,94246
2023-03-30T16:26:44.435Z,94253
2023-03-30T16:30:09.734Z,94253
2023-03-30T16:33:35.052Z,94254
2023-03-30T16:37:00.344Z,94258
2023-03-30T16:40:25.605Z,94255
2023-03-30T16:43:50.886Z,94252
2023-03-30T16:47:16.433Z,94257
2023-03-30T16:50:41.735Z,94251
2023-03-30T16:54:13.741Z,94251
2023-03-30T16:57:32.766Z,94257
2023-03-30T17:00:57.996Z,94255
2023-03-30T17:04:23.953Z,94255
2023-03-30T17:07:50.048Z,94264
2023-03-30T17:11:16.030Z,94266
2023-03-30T17:14:43.128Z,94261
2023-03-30T17:18:08.080Z,94264
2023-03-30T17:21:33.993Z,94255
2023-03-30T17:25:00.034Z,94255
2023-03-30T17:28:26.678Z,94260
2023-03-30T17:31:52.924Z,94265
2023-03-30T17:35:18.840Z,94264
2023-03-30T17:38:44.521Z,94263
2023-03-30T17:42:10.118Z,94255
2023-03-30T17:45:35.992Z,94269
2023-03-30T17:49:01.797Z,94277
2023-03-30T17:52:27.955Z,94284
2023-03-30T17:55:53.381Z,94287
2023-03-30T17:59:18.704Z,94275
2023-03-30T18:02:44.018Z,94276
2023-03-30T18:06:09.456Z,94274
2023-03-30T18:09:35.220Z,94283
2023-03-30T18:13:01.162Z,94302
2023-03-30T18:16:27.192Z,94314
2023-03-30T18:19:53.015Z,94316
2023-03-30T18:23:18.610Z,94313
2023-03-30T18:26:44.180Z,94321
2023-03-30T18:30:09.794Z,94325
2023-03-30T18:33:35.446Z,94332
2023-03-30T18:37:01.390Z,94332
2023-03-30T18:40:27.380Z,94336
2023-03-30T18:43:53.410Z,94349
2023-03-30T18:47:19.314Z,94353
2023-03-30T18:50:45.173Z,94350
2023-03-30T18:54:11.006Z,94356
2023-03-30T18:57:36.910Z,94363
2023-03-30T19:01:02.911Z,94363
2023-03-30T19:04:28.834Z,94354
2023-03-30T19:07:54.813Z,94345
2023-03-30T19:11:20.624Z,94358
2023-03-30T19:14:46.513Z,94363
2023-03-30T19:18:12.395Z,94357
2023-03-30T19:21:38.196Z,94355
2023-03-30T19:25:04.124Z,94360
2023-03-30T19:28:29.963Z,94357
2023-03-30T19:31:55.825Z,94356
2023-03-30T19:35:21.699Z,94352
2023-03-30T19:38:47.613Z,94353
2023-03-30T19:42:13.442Z,94357
2023-03-30T19:45:39.144Z,94360
2023-03-30T19:49:04.711Z,94362
2023-03-30T19:52:30.334Z,94346
2023-03-30T19:55:55.701Z,94354
2023-03-30T19:59:21.131Z,94356
2023-03-30T20:02:46.534Z,94357
2023-03-30T20:06:11.834Z,94360
2023-03-30T20:09:37.190Z,94359
2023-03-30T20:13:02.520Z,94359
2023-03-30T20:16:27.913Z,94367
2023-03-30T20:19:53.238Z,94366
2023-03-30T20:23:18.616Z,94364
2023-03-30T20:26:43.928Z,94370
2023-03-30T20:30:09.281Z,94368
2023-03-30T20:33:34.692Z,94372
2023-03-30T20:37:00.026Z,94357
2023-03-30T20:40:25.391Z,94359
2023-03-30T20:43:56.746Z,94367
2023-03-30T20:47:16.128Z,94374
2023-03-30T20:50:41.526Z,94371
2023-03-30T20:54:06.840Z,94362
2023-03-30T20:57:32.231Z,94367
2023-03-30T21:00:57.564Z,94361
2023-03-30T21:04:22.970Z,94354
2023-03-30T21:07:48.371Z,94345
2023-03-30T21:11:13.668Z,94343
2023-03-30T21:14:39.013Z,94350
2023-03-30T21:18:04.373Z,94344
2023-03-30T21:21:29.713Z,94347
2023-03-30T21:24:55.074Z,94353
2023-03-30T21:28:20.492Z,94350
2023-03-30T21:31:45.855Z,94352
2023-03-30T21:35:11.252Z,94343
2023-03-30T21:38:36.620Z,94353
2023-03-30T21:42:02.064Z,94350
2023-03-30T21:45:27.363Z,94335
2023-03-30T21:48:53.823Z,94327
2023-03-30T21:52:18.102Z,94332
2023-03-30T21:55:43.502Z,94332
2023-03-30T21:59:08.902Z,94323
2023-03-30T22:02:34.263Z,94313
2023-03-30T22:05:59.561Z,94312
2023-03-30T22:09:24.957Z,94310
2023-03-30T22:12:50.288Z,94311
2023-03-30T22:16:15.642Z,94310
2023-03-30T22:19:40.954Z,94306
2023-03-30T22:23:06.332Z,94294
2023-03-30T22:26:31.652Z,94287
2023-03-30T22:29:56.968Z,94292
2023-03-30T22:33:22.340Z,94294
2023-03-30T22:36:47.624Z,94293
2023-03-30T22:40:12.957Z,94287
2023-03-30T22:43:38.296Z,94281
2023-03-30T22:47:03.660Z,94289
2023-03-30T22:50:29.032Z,94291
2023-03-30T22:53:54.334Z,94282
2023-03-30T22:57:19.755Z,94282
2023-03-30T23:00:45.037Z,94286
2023-03-30T23:04:10.392Z,94287
2023-03-30T23:07:35.766Z,94282
2023-03-30T23:11:01.050Z,94274
2023-03-30T23:14:26.396Z,94264
2023-03-30T23:17:51.708Z,94265
2023-03-30T23:21:17.048Z,94262
2023-03-30T23:24:42.439Z,94257
2023-03-30T23:28:07.767Z,94257
2023-03-30T23:31:33.160Z,94259
2023-03-30T23:34:58.520Z,94250
2023-03-30T23:38:23.884Z,94248
2023-03-30T23:41:49.249Z,94243
2023-03-30T23:45:14.592Z,94244
2023-03-30T23:48:39.955Z,94240
2023-03-30T23:52:05.333Z,94236
2023-03-30T23:55:30.677Z,94238
2023-03-30T23:58:56.041Z,94232
